sensor_id;sensor_type;location;lat;lon;timestamp;P1;durP1;ratioP1;P2;durP2;ratioP2
25824;SDS011;13658;44.534;18.694;2022-10-12T00:00:49;94.00;;;60.55;;
25824;SDS011;13658;44.534;18.694;2022-10-12T00:03:16;94.28;;;58.55;;
25824;SDS011;13658;44.534;18.694;2022-10-12T00:05:43;94.38;;;59.92;;
25824;SDS011;13658;44.534;18.694;2022-10-12T00:08:09;94.07;;;60.17;;
25824;SDS011;13658;44.534;18.694;2022-10-12T00:10:39;98.88;;;60.97;;
25824;SDS011;13658;44.534;18.694;2022-10-12T00:13:08;96.32;;;61.33;;
25824;SDS011;13658;44.534;18.694;2022-10-12T00:15:35;100.00;;;61.20;;
25824;SDS011;13658;44.534;18.694;2022-10-12T00:18:05;92.65;;;60.75;;
25824;SDS011;13658;44.534;18.694;2022-10-12T00:20:32;94.75;;;57.72;;
25824;SDS011;13658;44.534;18.694;2022-10-12T00:22:58;92.70;;;57.05;;
25824;SDS011;13658;44.534;18.694;2022-10-12T00:25:24;92.40;;;59.28;;
25824;SDS011;13658;44.534;18.694;2022-10-12T00:27:51;100.57;;;59.55;;
25824;SDS011;13658;44.534;18.694;2022-10-12T00:30:17;91.70;;;57.97;;
25824;SDS011;13658;44.534;18.694;2022-10-12T00:32:43;93.05;;;58.83;;
25824;SDS011;13658;44.534;18.694;2022-10-12T00:35:09;92.93;;;59.10;;
25824;SDS011;13658;44.534;18.694;2022-10-12T00:37:34;94.80;;;57.95;;
25824;SDS011;13658;44.534;18.694;2022-10-12T00:40:00;96.70;;;58.90;;
25824;SDS011;13658;44.534;18.694;2022-10-12T00:42:26;90.25;;;57.00;;
25824;SDS011;13658;44.534;18.694;2022-10-12T00:44:52;90.70;;;57.75;;
25824;SDS011;13658;44.534;18.694;2022-10-12T00:47:34;94.38;;;59.83;;
25824;SDS011;13658;44.534;18.694;2022-10-12T00:50:13;87.43;;;56.97;;
25824;SDS011;13658;44.534;18.694;2022-10-12T00:55:24;90.53;;;58.55;;
25824;SDS011;13658;44.534;18.694;2022-10-12T00:57:54;92.78;;;59.85;;
25824;SDS011;13658;44.534;18.694;2022-10-12T01:00:21;97.05;;;61.25;;
25824;SDS011;13658;44.534;18.694;2022-10-12T01:02:48;116.82;;;73.43;;
25824;SDS011;13658;44.534;18.694;2022-10-12T01:05:16;115.72;;;75.63;;
25824;SDS011;13658;44.534;18.694;2022-10-12T01:07:43;127.13;;;80.15;;
25824;SDS011;13658;44.534;18.694;2022-10-12T01:10:09;129.43;;;82.43;;
25824;SDS011;13658;44.534;18.694;2022-10-12T01:12:35;121.60;;;79.22;;
25824;SDS011;13658;44.534;18.694;2022-10-12T01:15:02;128.20;;;80.57;;
25824;SDS011;13658;44.534;18.694;2022-10-12T01:20:09;126.60;;;80.65;;
25824;SDS011;13658;44.534;18.694;2022-10-12T01:22:50;128.63;;;81.32;;
25824;SDS011;13658;44.534;18.694;2022-10-12T01:25:45;126.32;;;80.10;;
25824;SDS011;13658;44.534;18.694;2022-10-12T01:31:24;123.95;;;79.93;;
25824;SDS011;13658;44.534;18.694;2022-10-12T01:34:01;120.72;;;80.55;;
25824;SDS011;13658;44.534;18.694;2022-10-12T01:36:43;122.32;;;78.47;;
25824;SDS011;13658;44.534;18.694;2022-10-12T01:42:20;106.53;;;68.60;;
25824;SDS011;13658;44.534;18.694;2022-10-12T01:44:59;92.75;;;60.42;;
25824;SDS011;13658;44.534;18.694;2022-10-12T01:47:30;92.60;;;57.92;;
25824;SDS011;13658;44.534;18.694;2022-10-12T01:49:57;86.38;;;56.35;;
25824;SDS011;13658;44.534;18.694;2022-10-12T01:52:28;89.97;;;56.22;;
25824;SDS011;13658;44.534;18.694;2022-10-12T01:55:00;89.35;;;57.08;;
25824;SDS011;13658;44.534;18.694;2022-10-12T01:57:52;91.25;;;57.45;;
25824;SDS011;13658;44.534;18.694;2022-10-12T02:00:52;91.13;;;57.83;;
25824;SDS011;13658;44.534;18.694;2022-10-12T02:06:12;92.90;;;58.80;;
25824;SDS011;13658;44.534;18.694;2022-10-12T02:08:45;91.38;;;60.28;;
25824;SDS011;13658;44.534;18.694;2022-10-12T02:11:18;102.13;;;62.65;;
25824;SDS011;13658;44.534;18.694;2022-10-12T02:13:47;94.20;;;59.80;;
25824;SDS011;13658;44.534;18.694;2022-10-12T02:16:30;103.43;;;62.47;;
25824;SDS011;13658;44.534;18.694;2022-10-12T02:19:04;96.78;;;60.67;;
25824;SDS011;13658;44.534;18.694;2022-10-12T02:21:34;96.50;;;63.42;;
25824;SDS011;13658;44.534;18.694;2022-10-12T02:24:03;93.88;;;59.95;;
25824;SDS011;13658;44.534;18.694;2022-10-12T02:26:33;95.55;;;63.35;;
25824;SDS011;13658;44.534;18.694;2022-10-12T02:29:01;98.97;;;61.70;;
25824;SDS011;13658;44.534;18.694;2022-10-12T02:35:04;97.95;;;62.20;;
25824;SDS011;13658;44.534;18.694;2022-10-12T02:37:20;95.63;;;60.53;;
25824;SDS011;13658;44.534;18.694;2022-10-12T02:40:02;96.05;;;60.55;;
25824;SDS011;13658;44.534;18.694;2022-10-12T02:42:43;92.90;;;58.50;;
25824;SDS011;13658;44.534;18.694;2022-10-12T02:45:15;93.57;;;60.65;;
25824;SDS011;13658;44.534;18.694;2022-10-12T02:47:43;95.45;;;61.50;;
25824;SDS011;13658;44.534;18.694;2022-10-12T02:50:11;98.97;;;60.33;;
25824;SDS011;13658;44.534;18.694;2022-10-12T02:52:39;99.22;;;62.75;;
25824;SDS011;13658;44.534;18.694;2022-10-12T02:55:05;97.13;;;60.25;;
25824;SDS011;13658;44.534;18.694;2022-10-12T02:57:31;97.47;;;61.38;;
25824;SDS011;13658;44.534;18.694;2022-10-12T02:59:57;100.15;;;59.35;;
25824;SDS011;13658;44.534;18.694;2022-10-12T03:02:23;90.65;;;58.47;;
25824;SDS011;13658;44.534;18.694;2022-10-12T03:04:49;96.40;;;60.03;;
25824;SDS011;13658;44.534;18.694;2022-10-12T03:07:15;101.97;;;60.42;;
25824;SDS011;13658;44.534;18.694;2022-10-12T03:09:41;91.90;;;60.22;;
25824;SDS011;13658;44.534;18.694;2022-10-12T03:12:07;96.28;;;59.95;;
25824;SDS011;13658;44.534;18.694;2022-10-12T03:14:33;94.22;;;59.58;;
25824;SDS011;13658;44.534;18.694;2022-10-12T03:17:01;93.57;;;59.97;;
25824;SDS011;13658;44.534;18.694;2022-10-12T03:19:28;94.40;;;61.92;;
25824;SDS011;13658;44.534;18.694;2022-10-12T03:21:54;95.32;;;60.90;;
25824;SDS011;13658;44.534;18.694;2022-10-12T03:24:20;104.50;;;61.92;;
25824;SDS011;13658;44.534;18.694;2022-10-12T03:26:46;95.30;;;59.65;;
25824;SDS011;13658;44.534;18.694;2022-10-12T03:29:12;100.68;;;62.70;;
25824;SDS011;13658;44.534;18.694;2022-10-12T03:31:38;108.63;;;64.88;;
25824;SDS011;13658;44.534;18.694;2022-10-12T03:34:04;97.63;;;60.95;;
25824;SDS011;13658;44.534;18.694;2022-10-12T03:36:30;102.28;;;63.10;;
25824;SDS011;13658;44.534;18.694;2022-10-12T03:38:56;98.78;;;62.58;;
25824;SDS011;13658;44.534;18.694;2022-10-12T03:41:22;97.60;;;60.75;;
25824;SDS011;13658;44.534;18.694;2022-10-12T03:43:48;96.15;;;61.33;;
25824;SDS011;13658;44.534;18.694;2022-10-12T03:46:14;94.88;;;60.83;;
25824;SDS011;13658;44.534;18.694;2022-10-12T03:48:40;99.03;;;60.78;;
25824;SDS011;13658;44.534;18.694;2022-10-12T03:51:06;111.75;;;68.88;;
25824;SDS011;13658;44.534;18.694;2022-10-12T03:53:32;129.50;;;80.25;;
25824;SDS011;13658;44.534;18.694;2022-10-12T03:55:58;127.38;;;82.32;;
25824;SDS011;13658;44.534;18.694;2022-10-12T03:58:24;125.45;;;81.13;;
25824;SDS011;13658;44.534;18.694;2022-10-12T04:00:53;110.05;;;66.95;;
25824;SDS011;13658;44.534;18.694;2022-10-12T04:03:19;101.32;;;61.83;;
25824;SDS011;13658;44.534;18.694;2022-10-12T04:05:52;95.13;;;61.70;;
25824;SDS011;13658;44.534;18.694;2022-10-12T04:08:19;101.88;;;63.13;;
25824;SDS011;13658;44.534;18.694;2022-10-12T04:10:46;92.53;;;58.20;;
25824;SDS011;13658;44.534;18.694;2022-10-12T04:13:12;95.18;;;60.65;;
25824;SDS011;13658;44.534;18.694;2022-10-12T04:15:37;99.47;;;64.47;;
25824;SDS011;13658;44.534;18.694;2022-10-12T04:18:03;95.07;;;62.50;;
25824;SDS011;13658;44.534;18.694;2022-10-12T04:20:29;94.65;;;59.85;;
25824;SDS011;13658;44.534;18.694;2022-10-12T04:22:56;98.45;;;62.70;;
25824;SDS011;13658;44.534;18.694;2022-10-12T04:25:22;103.03;;;64.47;;
25824;SDS011;13658;44.534;18.694;2022-10-12T04:27:49;103.72;;;64.32;;
25824;SDS011;13658;44.534;18.694;2022-10-12T04:30:15;93.68;;;62.70;;
25824;SDS011;13658;44.534;18.694;2022-10-12T04:32:41;107.28;;;66.57;;
25824;SDS011;13658;44.534;18.694;2022-10-12T04:35:07;108.57;;;64.65;;
25824;SDS011;13658;44.534;18.694;2022-10-12T04:37:33;97.22;;;60.53;;
25824;SDS011;13658;44.534;18.694;2022-10-12T04:39:59;99.85;;;62.67;;
25824;SDS011;13658;44.534;18.694;2022-10-12T04:42:25;92.50;;;61.53;;
25824;SDS011;13658;44.534;18.694;2022-10-12T04:44:51;111.47;;;66.10;;
25824;SDS011;13658;44.534;18.694;2022-10-12T04:47:17;97.15;;;61.03;;
25824;SDS011;13658;44.534;18.694;2022-10-12T04:49:43;103.75;;;63.05;;
25824;SDS011;13658;44.534;18.694;2022-10-12T04:52:09;101.30;;;61.22;;
25824;SDS011;13658;44.534;18.694;2022-10-12T04:54:35;95.20;;;59.88;;
25824;SDS011;13658;44.534;18.694;2022-10-12T04:57:01;105.38;;;66.60;;
25824;SDS011;13658;44.534;18.694;2022-10-12T04:59:27;97.07;;;61.80;;
25824;SDS011;13658;44.534;18.694;2022-10-12T05:01:53;98.75;;;61.03;;
25824;SDS011;13658;44.534;18.694;2022-10-12T05:04:19;94.50;;;61.58;;
25824;SDS011;13658;44.534;18.694;2022-10-12T05:06:45;97.60;;;62.08;;
25824;SDS011;13658;44.534;18.694;2022-10-12T05:09:11;97.43;;;60.10;;
25824;SDS011;13658;44.534;18.694;2022-10-12T05:11:37;93.85;;;61.20;;
25824;SDS011;13658;44.534;18.694;2022-10-12T05:14:03;97.05;;;62.08;;
25824;SDS011;13658;44.534;18.694;2022-10-12T05:16:29;97.45;;;62.92;;
25824;SDS011;13658;44.534;18.694;2022-10-12T05:18:55;97.22;;;60.28;;
25824;SDS011;13658;44.534;18.694;2022-10-12T05:21:21;97.28;;;60.67;;
25824;SDS011;13658;44.534;18.694;2022-10-12T05:23:50;98.07;;;61.22;;
25824;SDS011;13658;44.534;18.694;2022-10-12T05:26:16;102.80;;;64.55;;
25824;SDS011;13658;44.534;18.694;2022-10-12T05:28:45;102.85;;;64.05;;
25824;SDS011;13658;44.534;18.694;2022-10-12T05:31:11;108.88;;;65.65;;
25824;SDS011;13658;44.534;18.694;2022-10-12T05:33:37;97.68;;;62.80;;
25824;SDS011;13658;44.534;18.694;2022-10-12T05:36:03;101.80;;;64.03;;
25824;SDS011;13658;44.534;18.694;2022-10-12T05:38:29;105.63;;;64.20;;
25824;SDS011;13658;44.534;18.694;2022-10-12T05:40:55;94.65;;;62.05;;
25824;SDS011;13658;44.534;18.694;2022-10-12T05:43:21;99.68;;;63.88;;
25824;SDS011;13658;44.534;18.694;2022-10-12T05:45:47;98.10;;;61.65;;
25824;SDS011;13658;44.534;18.694;2022-10-12T05:48:13;100.07;;;63.95;;
25824;SDS011;13658;44.534;18.694;2022-10-12T05:50:39;101.10;;;62.72;;
25824;SDS011;13658;44.534;18.694;2022-10-12T05:53:05;97.45;;;64.22;;
25824;SDS011;13658;44.534;18.694;2022-10-12T05:55:31;99.60;;;64.45;;
25824;SDS011;13658;44.534;18.694;2022-10-12T05:57:57;94.72;;;63.70;;
25824;SDS011;13658;44.534;18.694;2022-10-12T06:00:23;105.05;;;67.82;;
25824;SDS011;13658;44.534;18.694;2022-10-12T06:02:49;123.25;;;79.18;;
25824;SDS011;13658;44.534;18.694;2022-10-12T06:05:15;108.75;;;70.38;;
25824;SDS011;13658;44.534;18.694;2022-10-12T06:07:41;110.22;;;69.22;;
25824;SDS011;13658;44.534;18.694;2022-10-12T06:10:07;110.82;;;71.35;;
25824;SDS011;13658;44.534;18.694;2022-10-12T06:12:34;103.38;;;67.43;;
25824;SDS011;13658;44.534;18.694;2022-10-12T06:15:00;107.88;;;70.43;;
25824;SDS011;13658;44.534;18.694;2022-10-12T06:17:27;106.03;;;67.60;;
25824;SDS011;13658;44.534;18.694;2022-10-12T06:19:53;114.45;;;74.78;;
25824;SDS011;13658;44.534;18.694;2022-10-12T06:22:20;102.07;;;67.13;;
25824;SDS011;13658;44.534;18.694;2022-10-12T06:24:46;104.68;;;66.18;;
25824;SDS011;13658;44.534;18.694;2022-10-12T06:27:11;109.15;;;67.60;;
25824;SDS011;13658;44.534;18.694;2022-10-12T06:29:38;107.97;;;66.57;;
25824;SDS011;13658;44.534;18.694;2022-10-12T06:32:04;107.65;;;67.22;;
25824;SDS011;13658;44.534;18.694;2022-10-12T06:34:30;104.13;;;67.22;;
25824;SDS011;13658;44.534;18.694;2022-10-12T06:36:56;105.28;;;69.93;;
25824;SDS011;13658;44.534;18.694;2022-10-12T06:39:22;116.43;;;79.20;;
25824;SDS011;13658;44.534;18.694;2022-10-12T06:41:50;125.38;;;82.78;;
25824;SDS011;13658;44.534;18.694;2022-10-12T06:44:17;120.70;;;80.15;;
25824;SDS011;13658;44.534;18.694;2022-10-12T06:46:46;121.22;;;79.40;;
25824;SDS011;13658;44.534;18.694;2022-10-12T06:49:14;139.93;;;91.60;;
25824;SDS011;13658;44.534;18.694;2022-10-12T06:51:40;137.05;;;85.28;;
25824;SDS011;13658;44.534;18.694;2022-10-12T06:54:06;129.63;;;85.07;;
25824;SDS011;13658;44.534;18.694;2022-10-12T06:56:32;120.03;;;76.00;;
25824;SDS011;13658;44.534;18.694;2022-10-12T06:58:59;112.03;;;76.05;;
25824;SDS011;13658;44.534;18.694;2022-10-12T07:01:25;111.65;;;74.47;;
25824;SDS011;13658;44.534;18.694;2022-10-12T07:03:51;111.05;;;73.85;;
25824;SDS011;13658;44.534;18.694;2022-10-12T07:06:16;111.60;;;71.75;;
25824;SDS011;13658;44.534;18.694;2022-10-12T07:08:42;112.13;;;72.03;;
25824;SDS011;13658;44.534;18.694;2022-10-12T07:11:10;112.22;;;74.15;;
25824;SDS011;13658;44.534;18.694;2022-10-12T07:13:37;134.43;;;89.40;;
25824;SDS011;13658;44.534;18.694;2022-10-12T07:16:03;131.73;;;85.85;;
25824;SDS011;13658;44.534;18.694;2022-10-12T07:18:29;132.93;;;82.93;;
25824;SDS011;13658;44.534;18.694;2022-10-12T07:20:56;115.05;;;74.40;;
25824;SDS011;13658;44.534;18.694;2022-10-12T07:23:27;115.43;;;73.70;;
25824;SDS011;13658;44.534;18.694;2022-10-12T07:25:56;169.43;;;106.70;;
25824;SDS011;13658;44.534;18.694;2022-10-12T07:28:23;124.05;;;78.55;;
25824;SDS011;13658;44.534;18.694;2022-10-12T07:30:49;110.18;;;71.60;;
25824;SDS011;13658;44.534;18.694;2022-10-12T07:33:15;108.05;;;70.78;;
25824;SDS011;13658;44.534;18.694;2022-10-12T07:35:41;105.10;;;72.07;;
25824;SDS011;13658;44.534;18.694;2022-10-12T07:38:07;106.40;;;69.72;;
25824;SDS011;13658;44.534;18.694;2022-10-12T07:40:33;103.10;;;68.03;;
25824;SDS011;13658;44.534;18.694;2022-10-12T07:42:59;108.63;;;68.50;;
25824;SDS011;13658;44.534;18.694;2022-10-12T07:45:25;112.97;;;70.63;;
25824;SDS011;13658;44.534;18.694;2022-10-12T07:47:54;116.90;;;71.63;;
25824;SDS011;13658;44.534;18.694;2022-10-12T07:50:20;118.53;;;72.28;;
25824;SDS011;13658;44.534;18.694;2022-10-12T07:52:47;117.80;;;70.90;;
25824;SDS011;13658;44.534;18.694;2022-10-12T07:55:12;110.97;;;71.13;;
25824;SDS011;13658;44.534;18.694;2022-10-12T07:57:38;112.60;;;72.13;;
25824;SDS011;13658;44.534;18.694;2022-10-12T08:00:04;105.32;;;70.45;;
25824;SDS011;13658;44.534;18.694;2022-10-12T08:02:36;111.75;;;70.53;;
25824;SDS011;13658;44.534;18.694;2022-10-12T08:05:02;110.03;;;71.50;;
25824;SDS011;13658;44.534;18.694;2022-10-12T08:07:29;93.50;;;61.30;;
25824;SDS011;13658;44.534;18.694;2022-10-12T08:09:55;100.00;;;63.53;;
25824;SDS011;13658;44.534;18.694;2022-10-12T08:12:21;101.85;;;63.20;;
25824;SDS011;13658;44.534;18.694;2022-10-12T08:14:47;106.55;;;66.32;;
25824;SDS011;13658;44.534;18.694;2022-10-12T08:17:12;95.43;;;62.10;;
25824;SDS011;13658;44.534;18.694;2022-10-12T08:19:38;100.00;;;64.32;;
25824;SDS011;13658;44.534;18.694;2022-10-12T08:22:04;98.10;;;62.63;;
25824;SDS011;13658;44.534;18.694;2022-10-12T08:24:30;100.90;;;63.63;;
25824;SDS011;13658;44.534;18.694;2022-10-12T08:26:56;104.03;;;65.28;;
25824;SDS011;13658;44.534;18.694;2022-10-12T08:29:22;101.47;;;67.40;;
25824;SDS011;13658;44.534;18.694;2022-10-12T08:31:48;95.97;;;62.35;;
25824;SDS011;13658;44.534;18.694;2022-10-12T08:34:15;97.30;;;64.15;;
25824;SDS011;13658;44.534;18.694;2022-10-12T08:36:41;97.82;;;63.50;;
25824;SDS011;13658;44.534;18.694;2022-10-12T08:39:07;99.50;;;68.60;;
25824;SDS011;13658;44.534;18.694;2022-10-12T08:49:58;90.72;;;61.53;;
25824;SDS011;13658;44.534;18.694;2022-10-12T08:52:29;99.07;;;62.85;;
25824;SDS011;13658;44.534;18.694;2022-10-12T08:55:24;96.07;;;62.70;;
25824;SDS011;13658;44.534;18.694;2022-10-12T08:57:45;98.93;;;62.58;;
25824;SDS011;13658;44.534;18.694;2022-10-12T09:00:14;85.63;;;59.22;;
25824;SDS011;13658;44.534;18.694;2022-10-12T09:02:52;88.68;;;57.55;;
25824;SDS011;13658;44.534;18.694;2022-10-12T09:05:39;88.72;;;60.00;;
25824;SDS011;13658;44.534;18.694;2022-10-12T09:14:02;81.22;;;55.83;;
25824;SDS011;13658;44.534;18.694;2022-10-12T09:16:33;86.05;;;57.30;;
25824;SDS011;13658;44.534;18.694;2022-10-12T09:19:07;78.38;;;53.33;;
25824;SDS011;13658;44.534;18.694;2022-10-12T09:21:39;76.57;;;51.65;;
25824;SDS011;13658;44.534;18.694;2022-10-12T09:24:26;88.82;;;58.25;;
25824;SDS011;13658;44.534;18.694;2022-10-12T09:26:56;81.47;;;54.28;;
25824;SDS011;13658;44.534;18.694;2022-10-12T09:29:28;80.22;;;55.45;;
25824;SDS011;13658;44.534;18.694;2022-10-12T09:34:44;88.82;;;57.08;;
25824;SDS011;13658;44.534;18.694;2022-10-12T09:37:19;85.63;;;54.72;;
25824;SDS011;13658;44.534;18.694;2022-10-12T09:42:13;80.07;;;55.33;;
25824;SDS011;13658;44.534;18.694;2022-10-12T09:44:40;67.13;;;47.42;;
25824;SDS011;13658;44.534;18.694;2022-10-12T09:50:36;58.25;;;42.38;;
25824;SDS011;13658;44.534;18.694;2022-10-12T09:58:28;53.83;;;39.55;;
25824;SDS011;13658;44.534;18.694;2022-10-12T10:01:09;71.18;;;52.08;;
25824;SDS011;13658;44.534;18.694;2022-10-12T10:03:42;55.35;;;43.13;;
25824;SDS011;13658;44.534;18.694;2022-10-12T10:06:07;64.35;;;44.88;;
25824;SDS011;13658;44.534;18.694;2022-10-12T10:08:43;60.30;;;43.63;;
25824;SDS011;13658;44.534;18.694;2022-10-12T10:11:14;55.65;;;40.50;;
25824;SDS011;13658;44.534;18.694;2022-10-12T10:13:45;56.83;;;44.83;;
25824;SDS011;13658;44.534;18.694;2022-10-12T10:16:13;44.63;;;35.15;;
25824;SDS011;13658;44.534;18.694;2022-10-12T10:18:41;46.85;;;36.05;;
25824;SDS011;13658;44.534;18.694;2022-10-12T10:21:32;52.72;;;38.55;;
25824;SDS011;13658;44.534;18.694;2022-10-12T10:24:00;46.88;;;36.72;;
25824;SDS011;13658;44.534;18.694;2022-10-12T10:26:29;49.65;;;38.72;;
25824;SDS011;13658;44.534;18.694;2022-10-12T10:29:23;59.95;;;42.13;;
25824;SDS011;13658;44.534;18.694;2022-10-12T10:32:16;56.15;;;41.67;;
25824;SDS011;13658;44.534;18.694;2022-10-12T10:40:17;45.35;;;35.03;;
25824;SDS011;13658;44.534;18.694;2022-10-12T10:42:53;46.08;;;34.92;;
25824;SDS011;13658;44.534;18.694;2022-10-12T10:45:25;39.72;;;33.00;;
25824;SDS011;13658;44.534;18.694;2022-10-12T10:47:55;50.25;;;35.25;;
25824;SDS011;13658;44.534;18.694;2022-10-12T10:50:33;48.97;;;35.35;;
25824;SDS011;13658;44.534;18.694;2022-10-12T10:53:06;46.75;;;36.10;;
25824;SDS011;13658;44.534;18.694;2022-10-12T10:55:55;44.47;;;33.90;;
25824;SDS011;13658;44.534;18.694;2022-10-12T11:01:11;46.05;;;37.70;;
25824;SDS011;13658;44.534;18.694;2022-10-12T11:03:59;44.55;;;33.92;;
25824;SDS011;13658;44.534;18.694;2022-10-12T11:06:41;46.13;;;35.25;;
25824;SDS011;13658;44.534;18.694;2022-10-12T11:09:18;46.95;;;36.22;;
25824;SDS011;13658;44.534;18.694;2022-10-12T11:11:54;48.70;;;35.90;;
25824;SDS011;13658;44.534;18.694;2022-10-12T11:14:26;46.65;;;35.65;;
25824;SDS011;13658;44.534;18.694;2022-10-12T11:17:00;51.67;;;36.43;;
25824;SDS011;13658;44.534;18.694;2022-10-12T11:19:41;49.53;;;36.25;;
25824;SDS011;13658;44.534;18.694;2022-10-12T11:22:15;48.00;;;35.90;;
25824;SDS011;13658;44.534;18.694;2022-10-12T11:24:51;46.65;;;37.40;;
25824;SDS011;13658;44.534;18.694;2022-10-12T11:27:20;43.75;;;34.15;;
25824;SDS011;13658;44.534;18.694;2022-10-12T11:35:02;43.00;;;30.85;;
25824;SDS011;13658;44.534;18.694;2022-10-12T11:37:32;43.50;;;33.20;;
25824;SDS011;13658;44.534;18.694;2022-10-12T11:40:04;36.50;;;29.35;;
25824;SDS011;13658;44.534;18.694;2022-10-12T11:42:40;38.50;;;29.25;;
25824;SDS011;13658;44.534;18.694;2022-10-12T11:45:28;35.67;;;27.90;;
25824;SDS011;13658;44.534;18.694;2022-10-12T11:48:02;32.80;;;27.17;;
25824;SDS011;13658;44.534;18.694;2022-10-12T11:50:37;40.53;;;28.15;;
25824;SDS011;13658;44.534;18.694;2022-10-12T11:53:07;34.55;;;26.48;;
25824;SDS011;13658;44.534;18.694;2022-10-12T11:58:21;33.42;;;26.23;;
25824;SDS011;13658;44.534;18.694;2022-10-12T12:08:57;30.42;;;24.10;;
25824;SDS011;13658;44.534;18.694;2022-10-12T12:11:42;30.02;;;24.25;;
25824;SDS011;13658;44.534;18.694;2022-10-12T12:16:49;28.40;;;22.40;;
25824;SDS011;13658;44.534;18.694;2022-10-12T12:19:35;28.40;;;22.50;;
25824;SDS011;13658;44.534;18.694;2022-10-12T12:22:15;26.70;;;21.50;;
25824;SDS011;13658;44.534;18.694;2022-10-12T12:27:42;29.35;;;22.27;;
25824;SDS011;13658;44.534;18.694;2022-10-12T12:32:49;28.20;;;23.00;;
25824;SDS011;13658;44.534;18.694;2022-10-12T12:35:26;28.90;;;23.73;;
25824;SDS011;13658;44.534;18.694;2022-10-12T12:38:00;30.42;;;23.25;;
25824;SDS011;13658;44.534;18.694;2022-10-12T12:40:36;31.27;;;23.95;;
25824;SDS011;13658;44.534;18.694;2022-10-12T12:45:53;32.90;;;24.45;;
25824;SDS011;13658;44.534;18.694;2022-10-12T12:53:39;37.30;;;27.33;;
25824;SDS011;13658;44.534;18.694;2022-10-12T12:56:14;34.88;;;26.33;;
25824;SDS011;13658;44.534;18.694;2022-10-12T13:01:18;35.95;;;28.08;;
25824;SDS011;13658;44.534;18.694;2022-10-12T13:22:44;36.30;;;28.45;;
25824;SDS011;13658;44.534;18.694;2022-10-12T13:25:14;35.50;;;27.50;;
25824;SDS011;13658;44.534;18.694;2022-10-12T13:27:55;37.15;;;26.55;;
25824;SDS011;13658;44.534;18.694;2022-10-12T13:30:34;35.50;;;28.25;;
25824;SDS011;13658;44.534;18.694;2022-10-12T13:40:40;43.05;;;30.17;;
25824;SDS011;13658;44.534;18.694;2022-10-12T13:43:28;39.97;;;28.98;;
25824;SDS011;13658;44.534;18.694;2022-10-12T13:45:58;40.28;;;28.98;;
25824;SDS011;13658;44.534;18.694;2022-10-12T13:48:25;38.72;;;28.25;;
25824;SDS011;13658;44.534;18.694;2022-10-12T13:50:58;36.25;;;27.40;;
25824;SDS011;13658;44.534;18.694;2022-10-12T13:53:32;38.92;;;26.85;;
25824;SDS011;13658;44.534;18.694;2022-10-12T13:58:39;37.03;;;28.20;;
25824;SDS011;13658;44.534;18.694;2022-10-12T14:01:06;40.75;;;28.42;;
25824;SDS011;13658;44.534;18.694;2022-10-12T14:03:43;40.17;;;30.15;;
25824;SDS011;13658;44.534;18.694;2022-10-12T14:08:53;39.95;;;28.80;;
25824;SDS011;13658;44.534;18.694;2022-10-12T14:11:26;40.05;;;28.02;;
25824;SDS011;13658;44.534;18.694;2022-10-12T14:13:53;39.55;;;29.58;;
25824;SDS011;13658;44.534;18.694;2022-10-12T14:16:20;41.92;;;29.67;;
25824;SDS011;13658;44.534;18.694;2022-10-12T14:18:46;40.45;;;29.92;;
25824;SDS011;13658;44.534;18.694;2022-10-12T14:21:20;37.55;;;29.52;;
25824;SDS011;13658;44.534;18.694;2022-10-12T14:23:54;38.83;;;30.20;;
25824;SDS011;13658;44.534;18.694;2022-10-12T14:26:26;38.03;;;29.25;;
25824;SDS011;13658;44.534;18.694;2022-10-12T14:29:31;49.97;;;37.20;;
25824;SDS011;13658;44.534;18.694;2022-10-12T14:34:46;60.40;;;39.72;;
25824;SDS011;13658;44.534;18.694;2022-10-12T14:39:39;50.28;;;34.17;;
25824;SDS011;13658;44.534;18.694;2022-10-12T14:44:51;42.08;;;31.73;;
25824;SDS011;13658;44.534;18.694;2022-10-12T14:47:28;41.17;;;31.23;;
25824;SDS011;13658;44.534;18.694;2022-10-12T14:49:59;40.03;;;30.42;;
25824;SDS011;13658;44.534;18.694;2022-10-12T14:52:33;40.45;;;31.05;;
25824;SDS011;13658;44.534;18.694;2022-10-12T14:55:01;42.42;;;30.33;;
25824;SDS011;13658;44.534;18.694;2022-10-12T14:57:28;38.05;;;28.08;;
25824;SDS011;13658;44.534;18.694;2022-10-12T14:59:55;42.53;;;30.80;;
25824;SDS011;13658;44.534;18.694;2022-10-12T15:02:26;39.53;;;29.55;;
25824;SDS011;13658;44.534;18.694;2022-10-12T15:04:54;41.83;;;31.30;;
25824;SDS011;13658;44.534;18.694;2022-10-12T15:09:51;41.33;;;30.90;;
25824;SDS011;13658;44.534;18.694;2022-10-12T15:12:19;52.97;;;34.38;;
25824;SDS011;13658;44.534;18.694;2022-10-12T15:14:47;66.30;;;45.20;;
25824;SDS011;13658;44.534;18.694;2022-10-12T15:17:16;51.55;;;33.08;;
25824;SDS011;13658;44.534;18.694;2022-10-12T15:19:44;145.68;;;89.72;;
25824;SDS011;13658;44.534;18.694;2022-10-12T15:22:16;47.22;;;33.15;;
25824;SDS011;13658;44.534;18.694;2022-10-12T15:24:42;47.38;;;32.17;;
25824;SDS011;13658;44.534;18.694;2022-10-12T15:27:08;40.10;;;29.80;;
25824;SDS011;13658;44.534;18.694;2022-10-12T15:29:34;48.47;;;32.63;;
25824;SDS011;13658;44.534;18.694;2022-10-12T15:32:00;50.38;;;34.97;;
25824;SDS011;13658;44.534;18.694;2022-10-12T15:34:26;77.18;;;48.53;;
25824;SDS011;13658;44.534;18.694;2022-10-12T15:36:52;54.65;;;37.58;;
25824;SDS011;13658;44.534;18.694;2022-10-12T15:39:18;59.05;;;40.03;;
25824;SDS011;13658;44.534;18.694;2022-10-12T15:41:44;52.90;;;34.78;;
25824;SDS011;13658;44.534;18.694;2022-10-12T15:44:10;61.80;;;40.70;;
25824;SDS011;13658;44.534;18.694;2022-10-12T15:46:38;42.50;;;30.83;;
25824;SDS011;13658;44.534;18.694;2022-10-12T15:49:04;57.20;;;40.45;;
25824;SDS011;13658;44.534;18.694;2022-10-12T15:51:31;77.18;;;52.00;;
25824;SDS011;13658;44.534;18.694;2022-10-12T15:54:02;35.90;;;27.60;;
25824;SDS011;13658;44.534;18.694;2022-10-12T15:56:28;41.17;;;30.83;;
25824;SDS011;13658;44.534;18.694;2022-10-12T15:58:54;47.40;;;31.80;;
25824;SDS011;13658;44.534;18.694;2022-10-12T16:01:20;44.75;;;31.38;;
25824;SDS011;13658;44.534;18.694;2022-10-12T16:03:46;49.95;;;34.17;;
25824;SDS011;13658;44.534;18.694;2022-10-12T16:06:13;43.38;;;31.77;;
25824;SDS011;13658;44.534;18.694;2022-10-12T16:08:39;41.70;;;29.98;;
25824;SDS011;13658;44.534;18.694;2022-10-12T16:11:06;47.55;;;33.80;;
25824;SDS011;13658;44.534;18.694;2022-10-12T16:13:33;42.50;;;31.10;;
25824;SDS011;13658;44.534;18.694;2022-10-12T16:15:59;105.85;;;59.85;;
25824;SDS011;13658;44.534;18.694;2022-10-12T16:18:25;48.35;;;33.40;;
25824;SDS011;13658;44.534;18.694;2022-10-12T16:20:51;43.90;;;33.65;;
25824;SDS011;13658;44.534;18.694;2022-10-12T16:23:25;47.97;;;33.10;;
25824;SDS011;13658;44.534;18.694;2022-10-12T16:25:52;51.90;;;34.10;;
25824;SDS011;13658;44.534;18.694;2022-10-12T16:28:19;54.28;;;35.60;;
25824;SDS011;13658;44.534;18.694;2022-10-12T16:30:46;50.25;;;35.67;;